Archival Weather

Wadi Al Dawasir

Wadi Al Dawasir, Saudi Arabia (OEWD)

Report from: Thursday, February 22, 2024 10:00 AM +03
Current time: Wednesday, April 24, 2024 10:12 PM +03

Current weather – Weather history – Daily summaries
Weather forecast

Temperature21.0°C (69.8°F)
Dew point-2.0°C (28.4°F)
Winds 18 kts (9.3 m/s, 20.7 mph) East-Southeast (120°)
Clouds Sky clear
Altimeter30.15 in.Hg (1021 mB)
Relative humidity21 %
Density altitude527 ft. (161 m)
Remarks Ceiling and visibility OK
Flight conditions Visual Meteorological Conditions
Raw dataOEWD 220700Z 12018KT CAVOK 21/M02 Q1021
An error has occurred. This application may no longer respond until reloaded. Reload 🗙